sensor_id;sensor_type;location;lat;lon;timestamp;P1;durP1;ratioP1;P2;durP2;ratioP2
35522;SDS011;61478;50.820;4.330;2023-03-26T00:01:56;17.65;;;4.68;;
35522;SDS011;61478;50.820;4.330;2023-03-26T00:04:22;25.10;;;5.43;;
35522;SDS011;61478;50.820;4.330;2023-03-26T00:06:49;26.52;;;4.88;;
35522;SDS011;61478;50.820;4.330;2023-03-26T00:09:16;27.38;;;5.60;;
35522;SDS011;61478;50.820;4.330;2023-03-26T00:11:43;23.30;;;5.00;;
35522;SDS011;61478;50.820;4.330;2023-03-26T00:14:11;25.73;;;5.88;;
35522;SDS011;61478;50.820;4.330;2023-03-26T00:16:38;26.33;;;5.38;;
35522;SDS011;61478;50.820;4.330;2023-03-26T00:19:07;31.73;;;6.72;;
35522;SDS011;61478;50.820;4.330;2023-03-26T00:21:35;27.30;;;5.68;;
35522;SDS011;61478;50.820;4.330;2023-03-26T00:24:02;21.70;;;5.88;;
35522;SDS011;61478;50.820;4.330;2023-03-26T00:26:33;31.73;;;6.13;;
35522;SDS011;61478;50.820;4.330;2023-03-26T00:29:01;33.72;;;7.03;;
35522;SDS011;61478;50.820;4.330;2023-03-26T00:31:29;33.42;;;6.93;;
35522;SDS011;61478;50.820;4.330;2023-03-26T00:33:55;31.58;;;6.18;;
35522;SDS011;61478;50.820;4.330;2023-03-26T00:36:22;28.73;;;7.00;;
35522;SDS011;61478;50.820;4.330;2023-03-26T00:38:52;32.03;;;7.03;;
35522;SDS011;61478;50.820;4.330;2023-03-26T00:41:19;29.70;;;6.65;;
35522;SDS011;61478;50.820;4.330;2023-03-26T00:43:55;32.67;;;6.32;;
35522;SDS011;61478;50.820;4.330;2023-03-26T00:46:23;29.75;;;6.55;;
35522;SDS011;61478;50.820;4.330;2023-03-26T00:48:50;29.45;;;6.60;;
35522;SDS011;61478;50.820;4.330;2023-03-26T00:51:16;32.00;;;6.30;;
35522;SDS011;61478;50.820;4.330;2023-03-26T00:53:44;28.00;;;7.68;;
35522;SDS011;61478;50.820;4.330;2023-03-26T00:56:11;33.55;;;7.50;;
35522;SDS011;61478;50.820;4.330;2023-03-26T00:58:38;28.45;;;6.32;;
35522;SDS011;61478;50.820;4.330;2023-03-26T01:01:05;28.13;;;6.53;;
35522;SDS011;61478;50.820;4.330;2023-03-26T01:03:35;32.40;;;7.13;;
35522;SDS011;61478;50.820;4.330;2023-03-26T01:06:03;28.63;;;6.90;;
35522;SDS011;61478;50.820;4.330;2023-03-26T01:11:00;35.03;;;7.75;;
35522;SDS011;61478;50.820;4.330;2023-03-26T01:13:32;34.05;;;7.57;;
35522;SDS011;61478;50.820;4.330;2023-03-26T01:16:01;31.42;;;7.43;;
35522;SDS011;61478;50.820;4.330;2023-03-26T01:18:31;31.08;;;6.75;;
35522;SDS011;61478;50.820;4.330;2023-03-26T01:20:58;33.35;;;6.93;;
35522;SDS011;61478;50.820;4.330;2023-03-26T01:23:46;34.63;;;7.45;;
35522;SDS011;61478;50.820;4.330;2023-03-26T01:29:17;31.23;;;6.43;;
35522;SDS011;61478;50.820;4.330;2023-03-26T01:31:47;26.27;;;6.93;;
35522;SDS011;61478;50.820;4.330;2023-03-26T01:34:48;28.50;;;6.05;;
35522;SDS011;61478;50.820;4.330;2023-03-26T01:40:00;25.83;;;4.95;;
35522;SDS011;61478;50.820;4.330;2023-03-26T01:45:12;28.23;;;6.57;;
35522;SDS011;61478;50.820;4.330;2023-03-26T01:47:43;26.35;;;6.18;;
35522;SDS011;61478;50.820;4.330;2023-03-26T01:50:10;28.35;;;6.63;;
35522;SDS011;61478;50.820;4.330;2023-03-26T01:52:36;26.25;;;5.45;;
35522;SDS011;61478;50.820;4.330;2023-03-26T01:55:03;35.35;;;6.60;;
35522;SDS011;61478;50.820;4.330;2023-03-26T02:03:08;29.35;;;6.50;;
35522;SDS011;61478;50.820;4.330;2023-03-26T02:06:04;23.90;;;6.68;;
35522;SDS011;61478;50.820;4.330;2023-03-26T02:08:41;32.70;;;7.65;;
35522;SDS011;61478;50.820;4.330;2023-03-26T02:11:15;29.63;;;6.88;;
35522;SDS011;61478;50.820;4.330;2023-03-26T02:13:42;26.98;;;7.18;;
35522;SDS011;61478;50.820;4.330;2023-03-26T02:16:11;33.15;;;7.65;;
35522;SDS011;61478;50.820;4.330;2023-03-26T02:18:40;28.85;;;7.25;;
35522;SDS011;61478;50.820;4.330;2023-03-26T02:21:12;32.03;;;7.10;;
35522;SDS011;61478;50.820;4.330;2023-03-26T02:23:44;36.40;;;7.47;;
35522;SDS011;61478;50.820;4.330;2023-03-26T02:26:17;35.60;;;6.82;;
35522;SDS011;61478;50.820;4.330;2023-03-26T02:28:44;28.10;;;7.05;;
35522;SDS011;61478;50.820;4.330;2023-03-26T02:31:10;28.83;;;6.75;;
35522;SDS011;61478;50.820;4.330;2023-03-26T02:33:38;24.80;;;6.18;;
35522;SDS011;61478;50.820;4.330;2023-03-26T02:36:04;28.23;;;6.32;;
35522;SDS011;61478;50.820;4.330;2023-03-26T02:38:32;22.85;;;6.30;;
35522;SDS011;61478;50.820;4.330;2023-03-26T02:40:59;26.67;;;6.07;;
35522;SDS011;61478;50.820;4.330;2023-03-26T02:43:25;27.83;;;6.22;;
35522;SDS011;61478;50.820;4.330;2023-03-26T02:45:52;24.42;;;6.07;;
35522;SDS011;61478;50.820;4.330;2023-03-26T02:48:18;24.80;;;6.10;;
35522;SDS011;61478;50.820;4.330;2023-03-26T02:50:44;24.08;;;6.45;;
35522;SDS011;61478;50.820;4.330;2023-03-26T02:53:14;29.02;;;6.63;;
35522;SDS011;61478;50.820;4.330;2023-03-26T02:55:41;25.17;;;6.07;;
35522;SDS011;61478;50.820;4.330;2023-03-26T02:58:07;30.08;;;6.03;;
35522;SDS011;61478;50.820;4.330;2023-03-26T03:00:33;27.13;;;5.90;;
35522;SDS011;61478;50.820;4.330;2023-03-26T03:02:59;28.45;;;6.72;;
35522;SDS011;61478;50.820;4.330;2023-03-26T03:05:29;28.25;;;5.65;;
35522;SDS011;61478;50.820;4.330;2023-03-26T03:07:59;29.30;;;5.63;;
35522;SDS011;61478;50.820;4.330;2023-03-26T03:10:25;26.27;;;6.03;;
35522;SDS011;61478;50.820;4.330;2023-03-26T03:12:52;27.83;;;6.90;;
35522;SDS011;61478;50.820;4.330;2023-03-26T03:15:19;17.75;;;4.65;;
35522;SDS011;61478;50.820;4.330;2023-03-26T03:17:45;19.98;;;5.30;;
35522;SDS011;61478;50.820;4.330;2023-03-26T03:20:11;23.90;;;5.55;;
35522;SDS011;61478;50.820;4.330;2023-03-26T03:22:37;20.48;;;5.13;;
35522;SDS011;61478;50.820;4.330;2023-03-26T03:25:04;22.15;;;6.05;;
35522;SDS011;61478;50.820;4.330;2023-03-26T03:27:33;21.33;;;5.78;;
35522;SDS011;61478;50.820;4.330;2023-03-26T03:29:59;29.92;;;6.82;;
35522;SDS011;61478;50.820;4.330;2023-03-26T03:32:25;25.75;;;6.57;;
35522;SDS011;61478;50.820;4.330;2023-03-26T03:34:51;27.83;;;5.93;;
35522;SDS011;61478;50.820;4.330;2023-03-26T03:37:17;22.38;;;5.22;;
35522;SDS011;61478;50.820;4.330;2023-03-26T03:39:45;23.88;;;5.28;;
35522;SDS011;61478;50.820;4.330;2023-03-26T03:42:11;22.45;;;5.63;;
35522;SDS011;61478;50.820;4.330;2023-03-26T03:44:37;25.20;;;5.15;;
35522;SDS011;61478;50.820;4.330;2023-03-26T03:47:03;22.70;;;5.05;;
35522;SDS011;61478;50.820;4.330;2023-03-26T03:49:29;30.02;;;5.63;;
35522;SDS011;61478;50.820;4.330;2023-03-26T03:51:55;30.00;;;4.50;;
35522;SDS011;61478;50.820;4.330;2023-03-26T03:54:21;20.83;;;5.25;;
35522;SDS011;61478;50.820;4.330;2023-03-26T03:56:47;25.60;;;5.25;;
35522;SDS011;61478;50.820;4.330;2023-03-26T03:59:13;23.73;;;4.80;;
35522;SDS011;61478;50.820;4.330;2023-03-26T04:01:39;26.60;;;6.30;;
35522;SDS011;61478;50.820;4.330;2023-03-26T04:04:11;23.70;;;5.72;;
35522;SDS011;61478;50.820;4.330;2023-03-26T04:06:36;27.73;;;4.97;;
35522;SDS011;61478;50.820;4.330;2023-03-26T04:09:03;25.45;;;5.30;;
35522;SDS011;61478;50.820;4.330;2023-03-26T04:11:29;19.50;;;4.78;;
35522;SDS011;61478;50.820;4.330;2023-03-26T04:13:55;24.02;;;5.25;;
35522;SDS011;61478;50.820;4.330;2023-03-26T04:16:21;27.08;;;5.78;;
35522;SDS011;61478;50.820;4.330;2023-03-26T04:18:47;40.97;;;6.57;;
35522;SDS011;61478;50.820;4.330;2023-03-26T04:21:13;30.38;;;5.78;;
35522;SDS011;61478;50.820;4.330;2023-03-26T04:23:40;25.35;;;5.68;;
35522;SDS011;61478;50.820;4.330;2023-03-26T04:26:09;20.40;;;5.25;;
35522;SDS011;61478;50.820;4.330;2023-03-26T04:28:44;22.75;;;4.70;;
35522;SDS011;61478;50.820;4.330;2023-03-26T04:31:14;24.48;;;5.35;;
35522;SDS011;61478;50.820;4.330;2023-03-26T04:33:45;29.77;;;6.32;;
35522;SDS011;61478;50.820;4.330;2023-03-26T04:36:12;23.65;;;4.90;;
35522;SDS011;61478;50.820;4.330;2023-03-26T04:38:41;27.67;;;5.15;;
35522;SDS011;61478;50.820;4.330;2023-03-26T04:41:13;22.95;;;4.85;;
35522;SDS011;61478;50.820;4.330;2023-03-26T04:43:40;24.35;;;5.22;;
35522;SDS011;61478;50.820;4.330;2023-03-26T04:46:15;21.98;;;5.38;;
35522;SDS011;61478;50.820;4.330;2023-03-26T04:48:48;20.17;;;4.60;;
35522;SDS011;61478;50.820;4.330;2023-03-26T04:51:15;23.40;;;5.57;;
35522;SDS011;61478;50.820;4.330;2023-03-26T04:53:44;25.83;;;4.57;;
35522;SDS011;61478;50.820;4.330;2023-03-26T04:58:58;16.27;;;4.68;;
35522;SDS011;61478;50.820;4.330;2023-03-26T05:03:55;15.98;;;4.63;;
35522;SDS011;61478;50.820;4.330;2023-03-26T05:06:23;19.77;;;4.43;;
35522;SDS011;61478;50.820;4.330;2023-03-26T05:08:52;24.15;;;4.93;;
35522;SDS011;61478;50.820;4.330;2023-03-26T05:11:21;19.65;;;4.35;;
35522;SDS011;61478;50.820;4.330;2023-03-26T05:13:46;18.15;;;3.97;;
35522;SDS011;61478;50.820;4.330;2023-03-26T05:16:12;12.73;;;4.53;;
35522;SDS011;61478;50.820;4.330;2023-03-26T05:18:38;23.13;;;5.13;;
35522;SDS011;61478;50.820;4.330;2023-03-26T05:21:04;22.35;;;4.25;;
35522;SDS011;61478;50.820;4.330;2023-03-26T05:23:30;18.80;;;4.25;;
35522;SDS011;61478;50.820;4.330;2023-03-26T05:25:56;17.50;;;4.22;;
35522;SDS011;61478;50.820;4.330;2023-03-26T05:28:22;14.82;;;3.35;;
35522;SDS011;61478;50.820;4.330;2023-03-26T05:30:50;18.33;;;3.97;;
35522;SDS011;61478;50.820;4.330;2023-03-26T05:33:17;10.73;;;3.13;;
35522;SDS011;61478;50.820;4.330;2023-03-26T05:35:45;14.05;;;3.42;;
35522;SDS011;61478;50.820;4.330;2023-03-26T05:38:11;16.08;;;3.20;;
35522;SDS011;61478;50.820;4.330;2023-03-26T05:40:37;18.40;;;2.85;;
35522;SDS011;61478;50.820;4.330;2023-03-26T05:43:03;13.43;;;2.95;;
35522;SDS011;61478;50.820;4.330;2023-03-26T05:45:28;12.48;;;3.17;;
35522;SDS011;61478;50.820;4.330;2023-03-26T05:47:55;13.80;;;3.13;;
35522;SDS011;61478;50.820;4.330;2023-03-26T05:50:20;15.43;;;3.63;;
35522;SDS011;61478;50.820;4.330;2023-03-26T05:52:47;16.02;;;4.20;;
35522;SDS011;61478;50.820;4.330;2023-03-26T05:55:13;15.20;;;4.03;;
35522;SDS011;61478;50.820;4.330;2023-03-26T05:57:39;9.70;;;3.28;;
35522;SDS011;61478;50.820;4.330;2023-03-26T06:00:06;20.42;;;3.95;;
35522;SDS011;61478;50.820;4.330;2023-03-26T06:02:36;18.45;;;3.55;;
35522;SDS011;61478;50.820;4.330;2023-03-26T06:05:02;14.57;;;3.20;;
35522;SDS011;61478;50.820;4.330;2023-03-26T06:07:28;17.48;;;4.03;;
35522;SDS011;61478;50.820;4.330;2023-03-26T06:09:55;21.50;;;4.35;;
35522;SDS011;61478;50.820;4.330;2023-03-26T06:12:21;16.60;;;3.92;;
35522;SDS011;61478;50.820;4.330;2023-03-26T06:14:47;15.63;;;5.72;;
35522;SDS011;61478;50.820;4.330;2023-03-26T06:17:13;13.48;;;3.63;;
35522;SDS011;61478;50.820;4.330;2023-03-26T06:19:39;12.93;;;3.03;;
35522;SDS011;61478;50.820;4.330;2023-03-26T06:22:04;13.23;;;3.25;;
35522;SDS011;61478;50.820;4.330;2023-03-26T06:24:31;17.02;;;3.72;;
35522;SDS011;61478;50.820;4.330;2023-03-26T06:26:57;11.57;;;2.75;;
35522;SDS011;61478;50.820;4.330;2023-03-26T06:29:23;7.80;;;2.58;;
35522;SDS011;61478;50.820;4.330;2023-03-26T06:31:49;11.50;;;2.60;;
35522;SDS011;61478;50.820;4.330;2023-03-26T06:34:15;8.95;;;3.03;;
35522;SDS011;61478;50.820;4.330;2023-03-26T06:36:42;11.70;;;3.13;;
35522;SDS011;61478;50.820;4.330;2023-03-26T06:39:10;11.18;;;2.95;;
35522;SDS011;61478;50.820;4.330;2023-03-26T06:41:46;13.70;;;3.80;;
35522;SDS011;61478;50.820;4.330;2023-03-26T06:44:12;10.75;;;3.22;;
35522;SDS011;61478;50.820;4.330;2023-03-26T06:46:38;7.63;;;2.50;;
35522;SDS011;61478;50.820;4.330;2023-03-26T06:49:07;11.45;;;3.08;;
35522;SDS011;61478;50.820;4.330;2023-03-26T06:51:33;9.18;;;2.63;;
35522;SDS011;61478;50.820;4.330;2023-03-26T06:53:59;10.13;;;2.28;;
35522;SDS011;61478;50.820;4.330;2023-03-26T06:56:25;9.85;;;2.55;;
35522;SDS011;61478;50.820;4.330;2023-03-26T06:58:51;7.18;;;2.53;;
35522;SDS011;61478;50.820;4.330;2023-03-26T07:01:17;6.97;;;1.92;;
35522;SDS011;61478;50.820;4.330;2023-03-26T07:03:43;7.72;;;1.98;;
35522;SDS011;61478;50.820;4.330;2023-03-26T07:06:09;6.35;;;1.77;;
35522;SDS011;61478;50.820;4.330;2023-03-26T07:08:35;7.63;;;2.10;;
35522;SDS011;61478;50.820;4.330;2023-03-26T07:11:04;7.50;;;1.95;;
35522;SDS011;61478;50.820;4.330;2023-03-26T07:13:30;7.35;;;1.80;;
35522;SDS011;61478;50.820;4.330;2023-03-26T07:15:56;6.28;;;1.90;;
35522;SDS011;61478;50.820;4.330;2023-03-26T07:18:21;6.25;;;2.00;;
35522;SDS011;61478;50.820;4.330;2023-03-26T07:20:47;12.38;;;2.30;;
35522;SDS011;61478;50.820;4.330;2023-03-26T07:23:14;5.75;;;1.88;;
35522;SDS011;61478;50.820;4.330;2023-03-26T07:25:44;9.63;;;2.05;;
35522;SDS011;61478;50.820;4.330;2023-03-26T07:28:12;5.38;;;1.88;;
35522;SDS011;61478;50.820;4.330;2023-03-26T07:36:47;6.47;;;1.83;;
35522;SDS011;61478;50.820;4.330;2023-03-26T07:39:34;8.50;;;1.70;;
35522;SDS011;61478;50.820;4.330;2023-03-26T07:47:50;5.25;;;1.45;;
35522;SDS011;61478;50.820;4.330;2023-03-26T07:50:19;5.82;;;2.03;;
35522;SDS011;61478;50.820;4.330;2023-03-26T07:52:47;4.97;;;1.75;;
35522;SDS011;61478;50.820;4.330;2023-03-26T07:55:13;10.98;;;3.20;;
35522;SDS011;61478;50.820;4.330;2023-03-26T08:00:46;6.95;;;2.20;;
35522;SDS011;61478;50.820;4.330;2023-03-26T08:03:25;6.28;;;2.00;;
35522;SDS011;61478;50.820;4.330;2023-03-26T08:06:27;5.47;;;2.13;;
35522;SDS011;61478;50.820;4.330;2023-03-26T08:09:01;4.03;;;1.42;;
35522;SDS011;61478;50.820;4.330;2023-03-26T08:14:07;4.15;;;1.60;;
35522;SDS011;61478;50.820;4.330;2023-03-26T08:16:48;7.00;;;2.08;;
35522;SDS011;61478;50.820;4.330;2023-03-26T08:19:47;5.63;;;1.98;;
35522;SDS011;61478;50.820;4.330;2023-03-26T08:22:26;4.65;;;1.98;;
35522;SDS011;61478;50.820;4.330;2023-03-26T08:27:46;8.45;;;2.03;;
35522;SDS011;61478;50.820;4.330;2023-03-26T08:30:28;6.35;;;1.95;;
35522;SDS011;61478;50.820;4.330;2023-03-26T08:32:59;6.15;;;1.55;;
35522;SDS011;61478;50.820;4.330;2023-03-26T08:35:35;6.78;;;1.50;;
35522;SDS011;61478;50.820;4.330;2023-03-26T08:38:09;5.40;;;2.20;;
35522;SDS011;61478;50.820;4.330;2023-03-26T08:43:32;9.13;;;2.25;;
35522;SDS011;61478;50.820;4.330;2023-03-26T08:46:39;5.45;;;2.22;;
35522;SDS011;61478;50.820;4.330;2023-03-26T09:03:15;5.60;;;1.77;;
35522;SDS011;61478;50.820;4.330;2023-03-26T09:09:45;9.55;;;2.90;;
35522;SDS011;61478;50.820;4.330;2023-03-26T09:11:49;7.97;;;2.88;;
35522;SDS011;61478;50.820;4.330;2023-03-26T09:14:34;5.93;;;2.08;;
35522;SDS011;61478;50.820;4.330;2023-03-26T09:31:46;5.77;;;2.30;;
35522;SDS011;61478;50.820;4.330;2023-03-26T09:48:46;6.65;;;3.33;;
35522;SDS011;61478;50.820;4.330;2023-03-26T09:51:36;9.73;;;4.55;;
35522;SDS011;61478;50.820;4.330;2023-03-26T10:00:43;4.75;;;2.22;;
35522;SDS011;61478;50.820;4.330;2023-03-26T10:11:45;9.57;;;2.08;;
35522;SDS011;61478;50.820;4.330;2023-03-26T10:14:43;4.97;;;2.03;;
35522;SDS011;61478;50.820;4.330;2023-03-26T10:31:49;9.15;;;3.70;;
35522;SDS011;61478;50.820;4.330;2023-03-26T10:37:23;5.97;;;2.42;;
35522;SDS011;61478;50.820;4.330;2023-03-26T10:40:20;5.50;;;2.17;;
35522;SDS011;61478;50.820;4.330;2023-03-26T10:48:26;6.80;;;2.30;;
35522;SDS011;61478;50.820;4.330;2023-03-26T10:53:52;8.60;;;3.55;;
35522;SDS011;61478;50.820;4.330;2023-03-26T10:56:25;6.05;;;3.70;;
35522;SDS011;61478;50.820;4.330;2023-03-26T10:58:55;8.70;;;3.50;;
35522;SDS011;61478;50.820;4.330;2023-03-26T11:09:40;5.93;;;2.40;;
35522;SDS011;61478;50.820;4.330;2023-03-26T11:23:28;5.22;;;2.25;;
35522;SDS011;61478;50.820;4.330;2023-03-26T11:28:44;8.65;;;4.47;;
35522;SDS011;61478;50.820;4.330;2023-03-26T11:33:44;7.35;;;4.05;;
35522;SDS011;61478;50.820;4.330;2023-03-26T11:36:22;7.38;;;4.30;;
35522;SDS011;61478;50.820;4.330;2023-03-26T11:38:54;8.57;;;5.93;;
35522;SDS011;61478;50.820;4.330;2023-03-26T11:41:27;4.10;;;2.90;;
35522;SDS011;61478;50.820;4.330;2023-03-26T11:43:58;6.40;;;3.25;;
35522;SDS011;61478;50.820;4.330;2023-03-26T11:46:28;4.22;;;2.40;;
35522;SDS011;61478;50.820;4.330;2023-03-26T11:48:58;7.38;;;3.30;;
35522;SDS011;61478;50.820;4.330;2023-03-26T11:51:34;6.20;;;3.03;;
35522;SDS011;61478;50.820;4.330;2023-03-26T11:54:02;6.72;;;3.10;;
35522;SDS011;61478;50.820;4.330;2023-03-26T11:59:19;9.32;;;3.28;;
35522;SDS011;61478;50.820;4.330;2023-03-26T12:01:57;4.03;;;2.75;;
35522;SDS011;61478;50.820;4.330;2023-03-26T12:04:43;7.35;;;2.90;;
35522;SDS011;61478;50.820;4.330;2023-03-26T12:07:19;7.10;;;3.15;;
35522;SDS011;61478;50.820;4.330;2023-03-26T12:09:54;5.47;;;2.75;;
35522;SDS011;61478;50.820;4.330;2023-03-26T12:12:39;5.05;;;2.65;;
35522;SDS011;61478;50.820;4.330;2023-03-26T12:15:15;5.43;;;2.87;;
35522;SDS011;61478;50.820;4.330;2023-03-26T12:17:45;5.57;;;2.97;;
35522;SDS011;61478;50.820;4.330;2023-03-26T12:22:58;7.03;;;2.97;;
35522;SDS011;61478;50.820;4.330;2023-03-26T12:25:47;4.28;;;2.78;;
35522;SDS011;61478;50.820;4.330;2023-03-26T12:28:31;6.18;;;2.95;;
35522;SDS011;61478;50.820;4.330;2023-03-26T12:30:58;5.03;;;3.05;;
35522;SDS011;61478;50.820;4.330;2023-03-26T12:33:30;5.80;;;3.00;;
35522;SDS011;61478;50.820;4.330;2023-03-26T12:35:59;4.53;;;2.17;;
35522;SDS011;61478;50.820;4.330;2023-03-26T12:38:50;4.13;;;2.35;;
35522;SDS011;61478;50.820;4.330;2023-03-26T12:41:18;7.88;;;3.67;;
35522;SDS011;61478;50.820;4.330;2023-03-26T12:43:55;6.28;;;4.18;;
35522;SDS011;61478;50.820;4.330;2023-03-26T12:46:25;8.40;;;6.50;;
35522;SDS011;61478;50.820;4.330;2023-03-26T12:48:55;7.18;;;4.70;;
35522;SDS011;61478;50.820;4.330;2023-03-26T12:57:12;7.18;;;4.70;;
35522;SDS011;61478;50.820;4.330;2023-03-26T13:00:08;8.98;;;4.78;;
35522;SDS011;61478;50.820;4.330;2023-03-26T13:16:54;4.50;;;3.28;;
35522;SDS011;61478;50.820;4.330;2023-03-26T13:22:24;4.05;;;1.60;;
35522;SDS011;61478;50.820;4.330;2023-03-26T13:28:38;4.03;;;2.25;;
35522;SDS011;61478;50.820;4.330;2023-03-26T13:33:49;5.93;;;3.03;;
35522;SDS011;61478;50.820;4.330;2023-03-26T13:39:22;6.03;;;2.60;;
35522;SDS011;61478;50.820;4.330;2023-03-26T13:42:17;3.95;;;2.08;;
35522;SDS011;61478;50.820;4.330;2023-03-26T13:45:00;3.22;;;1.77;;
35522;SDS011;61478;50.820;4.330;2023-03-26T13:47:54;3.83;;;1.90;;
35522;SDS011;61478;50.820;4.330;2023-03-26T13:50:27;8.75;;;4.50;;
35522;SDS011;61478;50.820;4.330;2023-03-26T13:55:59;4.50;;;2.10;;
35522;SDS011;61478;50.820;4.330;2023-03-26T13:58:33;3.88;;;2.10;;
35522;SDS011;61478;50.820;4.330;2023-03-26T14:01:16;5.70;;;3.25;;
35522;SDS011;61478;50.820;4.330;2023-03-26T14:09:18;2.25;;;1.70;;
35522;SDS011;61478;50.820;4.330;2023-03-26T14:11:51;2.28;;;1.60;;
35522;SDS011;61478;50.820;4.330;2023-03-26T14:17:24;4.05;;;1.85;;
35522;SDS011;61478;50.820;4.330;2023-03-26T14:42:42;1.95;;;1.70;;
35522;SDS011;61478;50.820;4.330;2023-03-26T14:45:42;7.50;;;2.88;;
35522;SDS011;61478;50.820;4.330;2023-03-26T14:54:03;4.55;;;2.20;;
35522;SDS011;61478;50.820;4.330;2023-03-26T14:56:40;2.53;;;2.22;;
35522;SDS011;61478;50.820;4.330;2023-03-26T15:16:37;4.70;;;2.95;;
35522;SDS011;61478;50.820;4.330;2023-03-26T15:45:24;8.00;;;5.10;;
35522;SDS011;61478;50.820;4.330;2023-03-26T15:47:58;9.07;;;4.97;;
35522;SDS011;61478;50.820;4.330;2023-03-26T15:53:20;5.85;;;4.72;;
35522;SDS011;61478;50.820;4.330;2023-03-26T15:56:10;9.40;;;5.25;;
35522;SDS011;61478;50.820;4.330;2023-03-26T15:59:05;8.75;;;5.60;;
35522;SDS011;61478;50.820;4.330;2023-03-26T16:01:56;9.23;;;5.30;;
35522;SDS011;61478;50.820;4.330;2023-03-26T16:04:52;7.70;;;5.07;;
35522;SDS011;61478;50.820;4.330;2023-03-26T16:09:59;12.88;;;7.63;;
35522;SDS011;61478;50.820;4.330;2023-03-26T16:15:53;13.50;;;5.82;;
35522;SDS011;61478;50.820;4.330;2023-03-26T16:18:25;15.32;;;7.00;;
35522;SDS011;61478;50.820;4.330;2023-03-26T16:34:48;25.38;;;9.23;;
35522;SDS011;61478;50.820;4.330;2023-03-26T16:37:37;16.17;;;7.38;;
35522;SDS011;61478;50.820;4.330;2023-03-26T16:45:16;21.27;;;7.20;;
35522;SDS011;61478;50.820;4.330;2023-03-26T16:51:24;20.73;;;7.38;;
35522;SDS011;61478;50.820;4.330;2023-03-26T16:56:26;28.30;;;11.60;;
35522;SDS011;61478;50.820;4.330;2023-03-26T17:11:02;29.52;;;7.35;;
35522;SDS011;61478;50.820;4.330;2023-03-26T17:16:26;29.05;;;7.68;;
35522;SDS011;61478;50.820;4.330;2023-03-26T17:21:55;27.75;;;6.85;;
35522;SDS011;61478;50.820;4.330;2023-03-26T17:27:26;25.33;;;7.50;;
35522;SDS011;61478;50.820;4.330;2023-03-26T17:30:22;20.90;;;6.75;;
35522;SDS011;61478;50.820;4.330;2023-03-26T17:32:58;23.13;;;6.95;;
35522;SDS011;61478;50.820;4.330;2023-03-26T17:40:50;20.88;;;5.80;;
35522;SDS011;61478;50.820;4.330;2023-03-26T17:49:06;29.85;;;8.00;;
35522;SDS011;61478;50.820;4.330;2023-03-26T17:51:51;21.35;;;5.72;;
35522;SDS011;61478;50.820;4.330;2023-03-26T17:54:35;18.42;;;6.57;;
35522;SDS011;61478;50.820;4.330;2023-03-26T17:57:13;23.05;;;8.43;;
35522;SDS011;61478;50.820;4.330;2023-03-26T17:59:59;14.23;;;5.30;;
35522;SDS011;61478;50.820;4.330;2023-03-26T18:02:30;19.23;;;5.68;;
35522;SDS011;61478;50.820;4.330;2023-03-26T18:05:07;26.35;;;7.18;;
35522;SDS011;61478;50.820;4.330;2023-03-26T18:15:39;22.40;;;7.50;;
35522;SDS011;61478;50.820;4.330;2023-03-26T18:18:47;21.75;;;7.72;;
35522;SDS011;61478;50.820;4.330;2023-03-26T18:21:37;20.55;;;7.25;;
35522;SDS011;61478;50.820;4.330;2023-03-26T18:24:10;25.88;;;6.75;;
35522;SDS011;61478;50.820;4.330;2023-03-26T18:29:14;20.98;;;6.00;;
35522;SDS011;61478;50.820;4.330;2023-03-26T18:31:59;29.15;;;6.53;;
35522;SDS011;61478;50.820;4.330;2023-03-26T18:34:28;23.23;;;6.97;;
35522;SDS011;61478;50.820;4.330;2023-03-26T18:42:35;22.67;;;5.38;;
35522;SDS011;61478;50.820;4.330;2023-03-26T18:45:04;28.08;;;6.70;;
35522;SDS011;61478;50.820;4.330;2023-03-26T18:47:33;23.35;;;8.75;;
35522;SDS011;61478;50.820;4.330;2023-03-26T18:50:01;18.98;;;7.50;;
35522;SDS011;61478;50.820;4.330;2023-03-26T18:52:27;22.95;;;8.52;;
35522;SDS011;61478;50.820;4.330;2023-03-26T18:54:55;22.02;;;7.20;;
35522;SDS011;61478;50.820;4.330;2023-03-26T18:57:27;24.33;;;9.93;;
35522;SDS011;61478;50.820;4.330;2023-03-26T18:59:54;23.40;;;7.05;;
35522;SDS011;61478;50.820;4.330;2023-03-26T19:02:39;26.73;;;6.20;;
35522;SDS011;61478;50.820;4.330;2023-03-26T19:05:06;29.15;;;6.32;;
35522;SDS011;61478;50.820;4.330;2023-03-26T19:07:37;26.05;;;6.03;;
35522;SDS011;61478;50.820;4.330;2023-03-26T19:10:03;20.23;;;5.28;;
35522;SDS011;61478;50.820;4.330;2023-03-26T19:12:30;27.70;;;8.57;;
35522;SDS011;61478;50.820;4.330;2023-03-26T19:15:01;15.98;;;4.00;;
35522;SDS011;61478;50.820;4.330;2023-03-26T19:17:37;20.50;;;6.20;;
35522;SDS011;61478;50.820;4.330;2023-03-26T19:20:27;26.60;;;7.07;;
35522;SDS011;61478;50.820;4.330;2023-03-26T19:22:57;21.17;;;4.75;;
35522;SDS011;61478;50.820;4.330;2023-03-26T19:25:35;20.15;;;5.63;;
35522;SDS011;61478;50.820;4.330;2023-03-26T19:28:10;20.45;;;5.88;;
35522;SDS011;61478;50.820;4.330;2023-03-26T19:30:41;19.13;;;4.90;;
35522;SDS011;61478;50.820;4.330;2023-03-26T19:33:12;21.55;;;4.90;;
35522;SDS011;61478;50.820;4.330;2023-03-26T19:35:40;21.70;;;5.03;;
35522;SDS011;61478;50.820;4.330;2023-03-26T19:38:12;18.27;;;5.28;;
35522;SDS011;61478;50.820;4.330;2023-03-26T19:40:50;15.23;;;4.55;;
35522;SDS011;61478;50.820;4.330;2023-03-26T19:43:18;20.02;;;4.90;;
35522;SDS011;61478;50.820;4.330;2023-03-26T19:45:44;19.70;;;4.63;;
35522;SDS011;61478;50.820;4.330;2023-03-26T19:48:13;17.58;;;3.63;;
35522;SDS011;61478;50.820;4.330;2023-03-26T19:50:50;19.15;;;4.65;;
35522;SDS011;61478;50.820;4.330;2023-03-26T19:53:28;15.90;;;4.43;;
35522;SDS011;61478;50.820;4.330;2023-03-26T19:55:58;20.10;;;5.30;;
35522;SDS011;61478;50.820;4.330;2023-03-26T19:58:34;19.33;;;4.85;;
35522;SDS011;61478;50.820;4.330;2023-03-26T20:01:00;18.65;;;6.18;;
35522;SDS011;61478;50.820;4.330;2023-03-26T20:03:28;34.88;;;13.82;;
35522;SDS011;61478;50.820;4.330;2023-03-26T20:06:01;22.85;;;5.68;;
35522;SDS011;61478;50.820;4.330;2023-03-26T20:08:26;16.88;;;3.83;;
35522;SDS011;61478;50.820;4.330;2023-03-26T20:10:54;12.20;;;4.03;;
35522;SDS011;61478;50.820;4.330;2023-03-26T20:13:20;12.20;;;3.90;;
35522;SDS011;61478;50.820;4.330;2023-03-26T20:15:49;13.27;;;4.25;;
35522;SDS011;61478;50.820;4.330;2023-03-26T20:18:32;16.73;;;4.32;;
35522;SDS011;61478;50.820;4.330;2023-03-26T20:20:59;14.40;;;4.22;;
35522;SDS011;61478;50.820;4.330;2023-03-26T20:23:25;28.77;;;9.35;;
35522;SDS011;61478;50.820;4.330;2023-03-26T20:25:52;12.55;;;3.90;;
35522;SDS011;61478;50.820;4.330;2023-03-26T20:28:19;14.10;;;3.63;;
35522;SDS011;61478;50.820;4.330;2023-03-26T20:30:45;13.98;;;4.75;;
35522;SDS011;61478;50.820;4.330;2023-03-26T20:33:16;15.63;;;3.80;;
35522;SDS011;61478;50.820;4.330;2023-03-26T20:35:45;17.58;;;3.90;;
35522;SDS011;61478;50.820;4.330;2023-03-26T20:38:11;16.60;;;5.88;;
35522;SDS011;61478;50.820;4.330;2023-03-26T20:40:37;12.23;;;3.25;;
35522;SDS011;61478;50.820;4.330;2023-03-26T20:43:04;11.35;;;3.08;;
35522;SDS011;61478;50.820;4.330;2023-03-26T20:45:35;17.58;;;3.58;;
35522;SDS011;61478;50.820;4.330;2023-03-26T20:48:01;16.17;;;4.50;;
35522;SDS011;61478;50.820;4.330;2023-03-26T20:50:27;14.13;;;3.22;;
35522;SDS011;61478;50.820;4.330;2023-03-26T20:52:53;17.90;;;4.63;;
35522;SDS011;61478;50.820;4.330;2023-03-26T20:55:19;20.75;;;5.00;;
35522;SDS011;61478;50.820;4.330;2023-03-26T20:57:45;18.33;;;4.90;;
35522;SDS011;61478;50.820;4.330;2023-03-26T21:00:13;16.33;;;4.07;;
35522;SDS011;61478;50.820;4.330;2023-03-26T21:02:43;13.85;;;3.45;;
35522;SDS011;61478;50.820;4.330;2023-03-26T21:05:11;20.60;;;3.92;;